METAR Data
IDs: Format: Raw Decoded Include TAF

Data at: 1518 UTC 18 Aug 2019

PASI 181453Z 35010G21KT 10SM CLR 14/M05 A2973 RMK AO2 PK WND 35032/1440 SLP067 T01441050 52002
PASI 181353Z 36004G12KT 10SM CLR 14/M06 A2973 RMK AO2 SLP068 T01441056
PASI 181253Z 02011G22KT 330V060 10SM CLR 14/M06 A2972 RMK AO2 SLP066 T01441056
PASI 181153Z 01005G15KT 10SM CLR 15/M03 A2972 RMK AO2 SLP066 70021 T01501033 10172 20144 53009
PASI 181053Z 36010G19KT 10SM CLR 15/M03 A2972 RMK AO2 PK WND 35029/1004 SLP063 T01501033
PASI 180953Z 36009G21KT 10SM CLR 16/M04 A2970 RMK AO2 SLP058 T01561044
PASI 180853Z 02006G25KT 10SM FEW055 16/M03 A2970 RMK AO2 PK WND 01029/0810 SLP056 T01611033 401720139 51010
PASI 180753Z 01010G22KT 10SM FEW055 16/M02 A2969 RMK AO2 SLP053 T01611022
PASI 180653Z 01013G21KT 340V050 10SM FEW055 17/M02 A2969 RMK AO2 PK WND 04033/0611 SLP052 T01671022
PASI 180553Z 12010KT 10SM FEW055 SCT110 16/M01 A2967 RMK AO2 PK WND 35031/0503 SLP046 60008 T01611006 10172 20144 51009
PASI 180453Z 35012G24KT 10SM FEW055 BKN110 16/02 A2967 RMK AO2 PK WND 36039/0443 SLP045 T01610022
PASI 180353Z 04012G28KT 10SM SCT055 BKN100 17/04 A2965 RMK AO2 PK WND 01031/0338 SLP040 T01670039
PASI 180253Z 06010G18KT 020V100 10SM FEW030 SCT055 BKN090 17/08 A2964 RMK AO2 SLP037 P0001 60008 T01670078 55002
PASI 180153Z 00000KT 10SM SCT030 BKN070 16/09 A2963 RMK AO2 RAE53 SLP034 P0001 T01560094
PASI 180053Z COR 00000KT 8SM -RA FEW008 SCT025 OVC060 15/11 A2964 RMK AO2 SLP036 P0006 T01500111
PASI 180015Z 00000KT 8SM -RA SCT008 SCT025 OVC045 14/11 A2965 RMK AO2 P0005 T01440111
PASI 172353Z 02006KT 5SM RA SCT008 BKN025 OVC037 15/12 A2965 RMK AO2 SLP040 P0002 60004 T01500122 10161 20144 56009
PASI 172321Z 30010KT 7SM -RA SCT008 BKN025 OVC037 15/13 A2965 RMK AO2 P0000 T01500128
PASI 172253Z 31010KT 4SM -RA BR BKN008 BKN025 OVC040 15/14 A2965 RMK AO2 DZE2155B16E22RAB22 SLP040 P0002 T01500139
PASI 172220Z 30007KT 7SM -DZ BKN008 BKN025 OVC040 16/13 A2965 RMK AO2 DZE2155B16 P0000 T01560133
PASI 172153Z 30005KT 8SM -DZ SCT008 BKN025 OVC048 16/13 A2966 RMK AO2 DZB28 SLP044 P0000 T01560133
PASI 172117Z 30006KT 10SM FEW004 SCT006 OVC025 16/14 A2968 RMK AO2 T01560139
PASI 172053Z 29006KT 10SM BKN008 OVC025 16/14 A2968 RMK AO2 SLP048 60000 T01560139 56023
PASI 172000Z 32003KT 9SM BKN007 OVC025 15/13 A2969 RMK AO2 T01500133
PASI 171953Z 00000KT 9SM BKN004 OVC025 15/13 A2969 RMK AO2 SLP054 T01500133
PASI 171853Z 00000KT 5SM BR BKN004 OVC015 15/14 A2972 RMK AO2 RAB30E43 SLP064 P0000 T01500139
PASI 171800Z 17003KT 9SM BKN004 OVC015 15/13 A2974 RMK AO2 T01500133
PASI 171753Z 18003KT 7SM BKN005 OVC015 15/13 A2974 RMK AO2 RAB1654E04 SLP071 P0000 60009 T01500133 10150 20139 56019
PASI 171653Z 18005KT 3SM BR BKN005 OVC014 14/13 A2976 RMK AO2 RAE33 SLP077 P0004 T01440133
PASI 171650Z 18006KT 3SM BR BKN005 OVC014 14/13 A2976 RMK AO2 RAE33 P0004
PASI 171619Z 22007KT 1SM -RA BR OVC005 14/13 A2978 RMK AO2 P0004 T01440133
PASI 171553Z 22004KT 1 1/2SM RA BR OVC004 14/14 A2980 RMK AO2 RAB37 SLP091 P0004 T01440139
PASI 171542Z 19005KT 2 1/2SM -RA BR BKN004 OVC011 14/14 A2980 RMK AO2 RAB37 P0001 T01440139
PASI 171453Z 17004KT 4SM BR OVC004 14/14 A2982 RMK AO2 RAB1357E27 SLP097 P0001 60001 T01440139 56035
PASI 171432Z 18007KT 4SM BR OVC004 14/14 A2983 RMK AO2 RAB1357E27 P0001 T01440139
PASI 171353Z 17006KT 8SM BR OVC008 15/13 A2985 RMK AO2 SLP107 MTNS OBSCRD NE E T01500133
PASI 171333Z 16005KT 10SM FEW007 BKN012 OVC019 15/14 A2986 RMK AO2 MTNS OBSCRD NE E T01500139
PASI 171253Z 24003KT 10SM OVC021 15/13 A2988 RMK AO2 SLP117 T01500133
PASI 171242Z 25005KT 10SM FEW011 OVC019 15/13 A2989 RMK AO2 T01500133
PASI 171224Z 24005KT 10SM SCT005 OVC013 15/14 A2990 RMK AO2 T01500139
PASI 171153Z 24006KT 10SM OVC007 15/14 A2992 RMK AO2 RAB06E42 SLP131 P0003 60004 70004 T01500139 10156 20150 56029
PASI 171125Z 20008KT 3SM -RA BR BKN009 OVC016 15/14 A2993 RMK AO2 RAB06 P0002 T01500139
PASI 171121Z 19007KT 2 1/2SM -RA BR SCT009 BKN012 OVC022 15/14 A2993 RMK AO2 RAB06 P0002 T01500139
PASI 171053Z 19006KT 10SM BKN012 BKN023 OVC028 16/14 A2994 RMK AO2 RAB22E44 SLP139 P0001 T01560139
PASI 171044Z 18007KT 10SM BKN010 BKN017 OVC027 16/14 A2995 RMK AO2 RAB22E44 P0001 T01560139
PASI 170953Z 19005KT 10SM OVC008 16/14 A2998 RMK AO2 RAB06E18 SLP151 P0000 T01560139
PASI 170943Z 22006KT 10SM BKN008 OVC035 16/14 A2999 RMK AO2 RAB06E18 P0000 T01560139
PASI 170903Z 22007KT 10SM BKN012 OVC018 16/14 A3000 RMK AO2 T01560139
PASI 170853Z 21006KT 9SM BKN016 OVC020 16/14 A3001 RMK AO2 SLP160 60000 T01560139 401720144 58021
PASI 170753Z 19003KT 10SM SCT008 OVC029 16/14 A3003 RMK AO2 RAB0658E08 SLP168 P0000 T01560139
PASI 170742Z 20003KT 10SM SCT008 BKN019 OVC029 16/14 A3003 RMK AO2 RAB0658E08 P0000 T01560139
PASI 170734Z 22003KT 10SM BKN008 BKN012 OVC029 16/14 A3003 RMK AO2 RAB0658E08 P0000 T01560139
PASI 170727Z 22003KT 9SM BKN010 BKN019 OVC029 16/14 A3003 RMK AO2 RAB0658E08 P0000 T01560139
PASI 170718Z 22004KT 8SM BKN008 BKN020 OVC034 16/14 A3004 RMK AO2 RAB0658E08 P0000 T01560144
PASI 170709Z 20005KT 5SM BR SCT008 OVC034 16/14 A3004 RMK AO2 RAB0658E08 P0000 T01560144
PASI 170653Z 21004KT 8SM OVC034 16/14 A3005 RMK AO2 SLP175 T01560144
PASI 170553Z 22007KT 10SM FEW005 SCT018 OVC044 16/14 A3007 RMK AO2 SLP181 T01560139 10167 20156 56012
PASI 170453Z 21006KT 10SM SCT005 SCT020 OVC044 16/14 A3008 RMK AO2 SLP184 VIS N 2 T01560139
PASI 170353Z 20006KT 10SM FEW005 SCT020 OVC044 16/14 A3009 RMK AO2 SLP188 T01560139